Terminal Aerodrome Forecast
Issued by NWS

Home | Current Version | Previous Version | Text Only | Print | Product List | Glossary Off
Versions: 1 2 3 4 5 6 7 8 9 10 11 12 13 14 15 16 17 18

000
FTUS43 KOAX 191720
TAFCDR
TAF
KCDR 191720Z 1918/2018 10010KT P6SM OVC050
     FM200000 10010KT 4SM -RASN OVC007
     FM200600 03005KT 2SM -SNRA OVC003
     FM201600 03007KT 4SM BR OVC007=

USA.gov is the U.S. government's official web portal to all federal, state and local government web resources and services.